Latest Weather Observations for Yeppoon

IDQ60801

Issued at 5:32 pm EST Monday 6 July 2015 (issued every 30 minutes, with the page automatically refreshed every 10 minutes)

About weather observations | Map of weather stations | Latest weather observations for QLD | Other Formats
Station Details ID: 033294 Name: YEPPOON THE ESPLANADE Lat: -23.14 Lon: 150.75 Height: 5.5 m
Data from the previous 72 hours. | See also: Recent months at Yeppoon
Date/Time
EST
Temp
°C
App
Temp
°C
Dew
Point
Rel
Hum
%
Delta-T
°C
Wind Press
QNH
hPa
Press
MSL
hPa
Rain
since 9 am
mm
Dir
 
Spd
km/h
Gust
km/h
Spd
kts
Gust
kts
06/05:30pm 19.6 20.0 16.3 81 2.0 NE 9 11 5 6 1016.9 1016.9 0.0
06/05:00pm 19.8 20.4 16.8 83 1.8 NE 9 11 5 6 1016.8 1016.8 0.0
06/04:30pm 20.1 20.6 16.6 80 2.1 ENE 9 11 5 6 1016.7 1016.7 0.0
06/04:00pm 20.3 20.5 16.7 80 2.2 NE 11 13 6 7 1016.5 1016.5 0.0
06/03:30pm 20.5 20.6 16.5 78 2.4 ENE 11 15 6 8 1016.6 1016.6 0.0
06/03:00pm 20.6 19.7 15.9 74 2.8 ENE 15 17 8 9 1016.7 1016.7 0.0
06/02:30pm 20.8 19.5 15.9 73 2.9 E 17 19 9 10 1017.0 1017.0 0.0
06/02:00pm 20.8 19.8 15.6 72 3.1 E 15 17 8 9 1017.2 1017.2 0.0
06/01:30pm 20.8 19.7 15.4 71 3.2 E 15 19 8 10 1017.4 1017.4 0.0
06/01:00pm 20.8 20.3 15.8 73 3.0 E 13 15 7 8 1017.7 1017.7 0.0
06/12:30pm 20.8 19.9 14.8 68 3.5 E 13 17 7 9 1018.2 1018.2 0.0
06/12:00pm 20.9 19.5 14.4 66 3.8 E 15 17 8 9 1018.9 1018.9 0.0
06/11:30am 20.7 18.8 14.1 66 3.8 E 17 19 9 10 1019.3 1019.3 0.0
06/11:00am 20.7 19.2 14.1 66 3.8 E 15 17 8 9 1019.6 1019.6 0.0
06/10:30am 20.4 19.7 14.4 68 3.5 E 11 15 6 8 1019.8 1019.8 0.0
06/10:00am 20.1 19.3 14.0 68 3.5 E 11 15 6 8 1019.9 1019.9 0.0
06/09:30am 19.5 19.4 13.9 70 3.2 ESE 7 9 4 5 1020.1 1020.1 0.0
06/09:00am 17.9 17.8 13.9 77 2.3 SSW 7 11 4 6 1020.0 1020.0 0.0
06/08:30am 16.8 16.2 13.6 81 1.8 SSW 9 11 5 6 1020.0 1020.0 0.0
06/08:00am 15.4 15.1 13.2 87 1.2 SW 7 11 4 6 1019.8 1019.8 0.0
06/07:30am 13.8 12.8 12.3 91 0.8 WSW 9 11 5 6 1019.7 1019.7 0.0
06/07:00am 13.3 12.3 12.4 94 0.5 WSW 9 11 5 6 1019.6 1019.6 0.0
06/06:30am 13.1 12.1 12.2 94 0.5 WSW 9 11 5 6 1019.4 1019.4 0.0
06/06:00am 13.2 12.2 12.3 94 0.5 WSW 9 11 5 6 1019.3 1019.3 0.0
06/05:30am 13.2 12.3 12.5 95 0.4 WSW 9 11 5 6 1019.1 1019.1 0.0
06/05:00am 13.3 12.4 12.7 96 0.3 WSW 9 11 5 6 1019.1 1019.1 0.0
06/04:30am 13.7 12.9 13.0 96 0.4 WSW 9 11 5 6 1019.1 1019.1 0.0
06/04:00am 14.1 13.5 13.4 96 0.4 WSW 9 11 5 6 1019.2 1019.2 0.0
06/03:30am 14.2 13.6 13.5 96 0.4 SW 9 11 5 6 1019.2 1019.2 0.0
06/03:00am 14.2 13.9 13.3 94 0.5 SW 7 9 4 5 1019.3 1019.3 0.0
06/02:30am 14.4 14.2 13.5 94 0.5 SW 7 9 4 5 1019.2 1019.2 0.0
06/02:00am 14.6 14.4 13.7 94 0.5 WSW 7 9 4 5 1019.5 1019.5 0.0
06/01:30am 14.4 13.8 13.5 94 0.5 WSW 9 11 5 6 1019.9 1019.9 0.0
06/01:00am 14.4 13.8 13.5 94 0.5 WSW 9 9 5 5 1020.2 1020.2 0.0
06/12:30am 14.7 14.8 13.8 94 0.5 SW 6 7 3 4 1020.2 1020.2 0.0
06/12:00am 14.5 14.3 13.6 94 0.5 SW 7 7 4 4 1020.3 1020.3 0.0
 
Date/Time
EST
Temp
°C
App
Temp
°C
Dew
Point
Rel
Hum
%
Delta-T
°C
Wind Press
QNH
hPa
Press
MSL
hPa
Rain
since 9 am
mm
Dir
 
Spd
km/h
Gust
km/h
Spd
kts
Gust
kts
05/11:30pm 14.5 14.5 13.6 94 0.5 SSW 6 7 3 4 1020.4 1020.4 0.0
05/11:00pm 14.5 14.4 13.4 93 0.6 SSW 6 7 3 4 1020.5 1020.5 0.0
05/10:30pm 14.6 15.3 13.5 93 0.6 SSW 2 7 1 4 1020.7 1020.7 0.0
05/10:00pm 14.8 14.8 13.7 93 0.6 SSW 6 7 3 4 1020.7 1020.7 0.0
05/09:30pm 15.3 15.4 13.9 91 0.8 SSW 6 7 3 4 1020.8 1020.8 0.0
05/09:00pm 15.9 16.1 14.1 89 1.0 SSW 6 7 3 4 1020.9 1020.9 0.0
05/08:30pm 16.3 16.2 14.0 86 1.3 SSW 7 9 4 5 1020.8 1020.8 0.0
05/08:00pm 17.6 17.8 14.1 80 2.0 SSE 6 7 3 4 1020.6 1020.6 0.0
05/07:30pm 19.3 19.1 14.8 75 2.6 E 9 15 5 8 1020.4 1020.4 0.0
05/07:00pm 19.3 19.1 14.8 75 2.6 E 9 13 5 7 1020.0 1020.0 0.0
05/06:30pm 19.4 18.5 14.9 75 2.6 E 13 17 7 9 1019.8 1019.8 0.0
05/06:00pm 19.5 18.2 14.7 74 2.8 E 15 17 8 9 1019.4 1019.4 0.0
05/05:30pm 19.7 18.7 14.7 73 2.9 E 13 17 7 9 1019.2 1019.2 0.0
05/05:00pm 20.0 17.7 14.1 69 3.4 E 19 22 10 12 1019.1 1019.1 0.0
05/04:30pm 20.0 17.9 15.2 74 2.8 E 20 24 11 13 1019.1 1019.1 0.0
05/04:00pm 20.4 18.6 15.5 73 2.9 E 19 22 10 12 1019.2 1019.2 0.0
05/03:30pm 20.7 18.7 14.9 69 3.4 E 19 24 10 13 1019.3 1019.3 0.0
05/03:00pm 20.8 18.3 14.1 65 3.9 E 20 26 11 14 1019.6 1019.6 0.0
05/02:30pm 20.8 18.0 14.2 66 3.8 E 22 28 12 15 1019.8 1019.8 0.0
05/02:00pm 21.2 18.1 13.3 60 4.5 E 22 28 12 15 1019.9 1019.9 0.0
05/01:30pm 21.5 18.9 13.3 59 4.7 E 19 22 10 12 1020.0 1020.0 0.0
05/01:00pm 21.1 18.6 13.6 62 4.3 E 19 24 10 13 1020.3 1020.3 0.0
05/12:30pm 21.0 19.2 14.5 66 3.8 ESE 17 24 9 13 1020.7 1020.7 0.0
05/12:00pm 20.7 19.0 14.7 68 3.5 ESE 17 24 9 13 1021.2 1021.2 0.0
05/11:30am 20.9 19.0 14.2 65 3.9 ESE 17 20 9 11 1021.4 1021.4 0.0
05/11:00am 21.1 19.2 13.0 60 4.6 ESE 15 24 8 13 1021.7 1021.7 0.0
05/10:30am 20.2 18.3 12.9 63 4.1 SE 15 20 8 11 1021.8 1021.8 0.0
05/10:00am 19.7 17.1 13.2 66 3.7 SE 19 24 10 13 1022.2 1022.2 0.0
05/09:30am 19.3 18.1 13.9 71 3.1 SE 13 20 7 11 1022.1 1022.1 0.0
05/09:00am 18.6 17.4 13.9 74 2.7 SSE 13 19 7 10 1021.9 1021.9 0.0
05/08:30am 17.9 16.5 13.5 75 2.5 SSE 13 17 7 9 1021.9 1021.9 0.0
05/08:00am 17.2 15.8 13.5 79 2.1 S 13 17 7 9 1021.6 1021.6 0.0
05/07:30am 16.5 15.2 13.7 83 1.6 S 13 20 7 11 1021.2 1021.2 0.0
05/07:00am 15.8 15.9 14.0 89 1.0 SW 6 11 3 6 1020.9 1020.9 0.0
05/06:30am 15.7 15.6 13.9 89 1.0 WSW 7 11 4 6 1020.5 1020.5 0.0
05/06:00am 15.5 14.7 13.9 90 0.9 W 11 13 6 7 1020.4 1020.4 0.0
05/05:30am 15.9 15.1 14.1 89 1.0 W 11 13 6 7 1020.0 1020.0 0.0
05/05:00am 16.1 16.2 14.5 90 0.9 SW 7 11 4 6 1019.8 1019.8 0.0
05/04:30am 15.8 14.8 14.6 93 0.7 SSW 13 17 7 9 1019.6 1019.6 0.0
05/04:00am 15.9 15.3 14.5 91 0.8 SSW 11 13 6 7 1019.7 1019.7 0.0
05/03:30am 15.9 16.0 14.5 91 0.8 SW 7 9 4 5 1019.7 1019.7 0.0
05/03:00am 15.9 15.6 14.5 91 0.8 SW 9 11 5 6 1019.6 1019.6 0.0
05/02:30am 15.9 15.6 14.3 90 0.9 WSW 9 9 5 5 1019.9 1019.9 0.0
05/02:00am 16.2 16.3 14.4 89 1.0 WSW 7 9 4 5 1020.2 1020.2 0.0
05/01:30am 16.6 16.4 14.7 88 1.1 W 9 11 5 6 1020.4 1020.4 0.0
05/01:00am 16.9 16.8 15.0 88 1.1 SW 9 11 5 6 1020.6 1020.6 0.0
05/12:30am 17.3 17.6 15.1 87 1.3 SSW 7 9 4 5 1020.7 1020.7 0.0
05/12:00am 17.8 17.7 15.0 84 1.6 SW 9 11 5 6 1021.0 1021.0 0.0
 
Date/Time
EST
Temp
°C
App
Temp
°C
Dew
Point
Rel
Hum
%
Delta-T
°C
Wind Press
QNH
hPa
Press
MSL
hPa
Rain
since 9 am
mm
Dir
 
Spd
km/h
Gust
km/h
Spd
kts
Gust
kts
04/11:30pm 18.1 19.5 15.4 84 1.6 SSW 2 7 1 4 1021.2 1021.2 0.0
04/11:00pm 19.0 19.3 16.0 83 1.8 ENE 9 13 5 7 1021.3 1021.3 0.0
04/10:30pm 19.2 19.1 16.0 82 1.9 ENE 11 15 6 8 1021.4 1021.4 0.0
04/10:00pm 19.1 18.4 15.3 78 2.2 NE 13 17 7 9 1021.6 1021.6 0.0
04/09:30pm 19.2 18.4 16.0 82 1.9 ENE 15 19 8 10 1021.6 1021.6 0.0
04/09:00pm 19.4 18.3 15.3 77 2.4 E 15 24 8 13 1021.7 1021.7 0.0
04/08:30pm 19.6 18.3 14.8 74 2.8 ESE 15 22 8 12 1021.4 1021.4 0.0
04/08:00pm 19.5 18.6 14.9 75 2.7 ESE 13 19 7 10 1021.4 1021.4 0.0
04/07:30pm 19.4 18.1 14.9 75 2.6 ESE 15 20 8 11 1021.3 1021.3 0.0
04/07:00pm 19.5 18.0 15.4 77 2.4 E 17 22 9 12 1020.9 1020.9 0.0
04/06:30pm 19.4 18.6 15.1 76 2.5 ESE 13 20 7 11 1020.4 1020.4 0.0
04/06:00pm 19.2 18.0 15.1 77 2.4 ESE 15 20 8 11 1020.1 1020.1 0.0
04/05:30pm 19.3 17.8 15.2 77 2.4 E 17 26 9 14 1019.8 1019.8 0.0
04/05:00pm 19.5 18.2 14.7 74 2.8 ESE 15 22 8 12 1019.6 1019.6 0.0
04/04:30pm 19.9 18.2 14.6 71 3.1 E 17 24 9 13 1019.6 1019.6 0.0
04/04:00pm 20.1 18.5 14.0 68 3.5 ESE 15 22 8 12 1019.4 1019.4 0.0
04/03:30pm 20.4 18.5 14.2 67 3.6 ESE 17 24 9 13 1019.3 1019.3 0.0
04/03:00pm 20.6 18.2 13.8 65 3.9 ESE 19 24 10 13 1019.4 1019.4 0.0
04/02:30pm 20.5 18.4 13.7 65 3.9 ESE 17 24 9 13 1019.4 1019.4 0.0
04/02:00pm 20.3 17.9 13.9 66 3.7 ESE 19 24 10 13 1019.3 1019.3 0.0
04/01:30pm 20.3 18.6 13.7 66 3.8 ESE 15 22 8 12 1019.5 1019.5 0.0
04/01:00pm 20.0 17.3 12.9 63 4.0 ESE 19 24 10 13 1019.9 1019.9 0.0
04/12:30pm 20.2 17.9 13.1 63 4.0 ESE 17 26 9 14 1020.2 1020.2 0.0
04/12:00pm 20.2 17.5 12.9 63 4.1 ESE 19 28 10 15 1020.5 1020.5 0.0
04/11:30am 19.8 17.0 12.7 63 4.0 ESE 19 28 10 15 1020.9 1020.9 0.0
04/11:00am 19.7 17.2 12.3 62 4.1 ESE 17 22 9 12 1021.4 1021.4 0.0
04/10:30am 19.1 16.5 12.0 63 3.9 ESE 17 22 9 12 1021.5 1021.5 0.0
04/10:00am 18.4 15.2 11.2 63 3.9 SE 19 24 10 13 1021.8 1021.8 0.0
04/09:30am 17.5 15.4 11.2 66 3.4 S 13 19 7 10 1021.9 1021.9 0.0
04/09:00am 16.3 14.6 10.0 66 3.3 SSE 9 13 5 7 1022.1 1022.1 0.0
04/08:30am 15.3 12.2 8.8 65 3.3 S 15 20 8 11 1022.1 1022.1 0.0
04/08:00am 14.5 12.0 8.1 65 3.2 SSW 11 17 6 9 1022.2 1022.2 0.0
04/07:30am 13.8 11.5 7.5 66 3.1 SW 9 13 5 7 1022.0 1022.0 0.0
04/07:00am 13.2 10.7 6.7 64 3.1 SW 9 13 5 7 1021.6 1021.6 0.0
04/06:30am 12.3 9.4 6.4 67 2.8 SSW 11 15 6 8 1021.4 1021.4 0.0
04/06:00am 12.5 9.9 6.1 65 3.0 SW 9 15 5 8 1021.0 1021.0 0.0
04/05:30am 12.2 9.7 6.5 68 2.7 SSW 9 13 5 7 1020.8 1020.8 0.0
04/05:00am 12.4 9.9 6.7 68 2.7 SSW 9 15 5 8 1020.5 1020.5 0.0
04/04:30am 12.7 9.4 6.6 66 2.9 SSW 13 20 7 11 1020.3 1020.3 0.0
04/04:00am 12.7 9.8 6.4 65 3.0 SSW 11 17 6 9 1020.4 1020.4 0.0
04/03:30am 12.4 9.6 7.0 69 2.6 SSW 11 13 6 7 1020.4 1020.4 0.0
04/03:00am 12.5 9.8 7.3 70 2.5 SSW 11 15 6 8 1020.4 1020.4 0.0
04/02:30am 13.2 10.8 7.2 67 2.9 SSW 9 13 5 7 1020.5 1020.5 0.0
04/02:00am 12.7 10.4 7.6 71 2.5 SSW 9 13 5 7 1020.5 1020.5 0.0
04/01:30am 13.2 11.0 7.7 69 2.7 SSW 9 13 5 7 1021.2 1021.2 0.0
04/01:00am 14.0 11.4 7.7 66 3.1 SSW 11 17 6 9 1021.3 1021.3 0.0
04/12:30am 14.5 12.2 9.0 69 2.8 S 11 17 6 9 1021.4 1021.4 0.0
04/12:00am 14.9 12.7 9.4 69 2.8 S 11 13 6 7 1021.5 1021.5 0.0
 
Date/Time
EST
Temp
°C
App
Temp
°C
Dew
Point
Rel
Hum
%
Delta-T
°C
Wind Press
QNH
hPa
Press
MSL
hPa
Rain
since 9 am
mm
Dir
 
Spd
km/h
Gust
km/h
Spd
kts
Gust
kts
03/11:30pm 14.8 12.2 9.3 69 2.8 S 13 17 7 9 1021.7 1021.7 0.0
03/11:00pm 13.5 11.6 9.1 75 2.2 SW 9 13 5 7 1021.9 1021.9 0.0
03/10:30pm 13.0 11.1 9.0 77 2.0 SW 9 11 5 6 1022.0 1022.0 0.0
03/10:00pm 13.4 11.9 9.0 75 2.2 SW 7 9 4 5 1022.0 1022.0 0.0
03/09:30pm 13.4 11.4 8.8 74 2.3 SW 9 11 5 6 1022.0 1022.0 0.0
03/09:00pm 13.0 11.6 9.7 80 1.7 WSW 7 9 4 5 1022.0 1022.0 0.0
03/08:30pm 13.2 11.5 9.7 79 1.8 W 9 11 5 6 1022.0 1022.0 0.0
03/08:00pm 13.6 12.0 10.1 79 1.8 W 9 13 5 7 1021.8 1021.8 0.0
03/07:30pm 14.1 12.1 10.0 76 2.1 W 11 15 6 8 1021.6 1021.6 0.0
03/07:00pm 14.5 13.3 10.3 76 2.2 WSW 7 11 4 6 1021.5 1021.5 0.0
03/06:30pm 15.6 14.5 10.7 72 2.6 S 7 9 4 5 1021.0 1021.0 0.0
03/06:00pm 17.3 15.4 10.5 64 3.6 ESE 11 17 6 9 1020.9 1020.9 0.0

Other Formats:

Comma delimited format used in spreadsheet applications
http://www.bom.gov.au/fwo/IDQ60801/IDQ60801.94373.axf

JavaScript Object Notation format (JSON) in row-major order
http://www.bom.gov.au/fwo/IDQ60801/IDQ60801.94373.json